createdAt,value
2022-11-17T00:00:36.349Z,48.60
2022-11-17T02:15:55.246Z,39.45
2022-11-17T02:17:58.271Z,41.55
2022-11-17T02:20:14.215Z,34.88
2022-11-17T02:22:39.733Z,39.55
2022-11-17T02:24:52.844Z,34.55
2022-11-17T02:27:25.746Z,37.10
2022-11-17T02:29:54.252Z,34.35
2022-11-17T02:32:10.847Z,37.22
2022-11-17T02:34:34.642Z,33.35
2022-11-17T02:36:54.566Z,42.92
2022-11-17T02:39:21.027Z,42.15
2022-11-17T02:41:30.803Z,37.88
2022-11-17T02:43:59.798Z,38.22
2022-11-17T02:46:12.126Z,30.25
2022-11-17T02:50:28.464Z,26.17
2022-11-17T02:52:31.245Z,26.67
2022-11-17T02:54:33.800Z,26.15
2022-11-17T02:56:41.243Z,24.33
2022-11-17T02:58:43.126Z,25.90
2022-11-17T03:01:15.793Z,28.48
2022-11-17T03:06:11.964Z,25.48
2022-11-17T03:08:45.276Z,26.67
2022-11-17T03:11:01.083Z,22.38
2022-11-17T03:13:16.889Z,24.38
2022-11-17T03:15:27.882Z,27.33
2022-11-17T03:17:32.583Z,25.58
2022-11-17T03:19:55.143Z,20.98
2022-11-17T03:24:33.742Z,22.25
2022-11-17T03:26:43.299Z,21.08
2022-11-17T03:28:47.046Z,23.83
2022-11-17T03:30:50.953Z,21.95
2022-11-17T03:32:58.391Z,23.92
2022-11-17T03:35:08.254Z,23.35
2022-11-17T03:37:13.602Z,20.67
2022-11-17T03:39:43.287Z,23.85
2022-11-17T03:41:48.429Z,24.17
2022-11-17T03:43:52.680Z,21.95
2022-11-17T03:45:59.040Z,21.13
2022-11-17T03:48:08.497Z,25.40
2022-11-17T03:50:16.765Z,23.38
2022-11-17T03:52:19.809Z,23.55
2022-11-17T03:54:21.718Z,25.80
2022-11-17T03:56:35.502Z,23.35
2022-11-17T03:58:42.821Z,25.67
2022-11-17T04:00:46.578Z,24.77
2022-11-17T04:02:54.144Z,20.50
2022-11-17T04:05:08.034Z,22.92
2022-11-17T04:07:09.971Z,22.55
2022-11-17T04:09:11.988Z,21.98
2022-11-17T04:11:32.600Z,20.67
2022-11-17T04:13:52.961Z,19.48
2022-11-17T04:15:59.350Z,23.88
2022-11-17T04:18:02.086Z,22.20
2022-11-17T04:20:04.279Z,19.83
2022-11-17T04:22:06.143Z,18.55
2022-11-17T04:24:08.422Z,18.85
2022-11-17T04:26:30.343Z,20.65
2022-11-17T04:28:36.905Z,22.55
2022-11-17T04:30:38.745Z,22.60
2022-11-17T04:32:40.638Z,23.67
2022-11-17T04:34:42.686Z,22.42
2022-11-17T04:38:49.675Z,16.37
2022-11-17T04:41:10.111Z,20.13
2022-11-17T04:43:11.958Z,17.95
2022-11-17T04:45:13.952Z,15.45
2022-11-17T04:47:15.796Z,17.73
2022-11-17T04:49:18.999Z,18.85
2022-11-17T04:51:21.747Z,18.83
2022-11-17T04:53:24.628Z,17.42
2022-11-17T04:55:26.442Z,18.10
2022-11-17T04:57:28.444Z,17.48
2022-11-17T05:01:32.675Z,16.73
2022-11-17T05:03:34.945Z,17.15
2022-11-17T05:05:37.024Z,18.27
2022-11-17T05:07:38.960Z,17.27
2022-11-17T05:09:40.897Z,16.27
2022-11-17T05:12:01.973Z,16.27
2022-11-17T05:14:03.825Z,17.00
2022-11-17T05:16:24.620Z,15.15
2022-11-17T05:18:26.460Z,13.50
2022-11-17T05:20:28.309Z,16.25
2022-11-17T05:22:48.850Z,15.10
2022-11-17T05:24:51.579Z,14.43
2022-11-17T05:26:53.958Z,16.15
2022-11-17T05:28:57.706Z,14.02
2022-11-17T05:30:59.556Z,15.23
2022-11-17T05:33:01.401Z,16.67
2022-11-17T05:35:03.451Z,16.65
2022-11-17T05:37:05.402Z,17.25
2022-11-17T05:39:08.146Z,16.70
2022-11-17T05:41:10.062Z,15.32
2022-11-17T05:43:11.923Z,11.02
2022-11-17T05:45:13.779Z,10.82
2022-11-17T05:47:15.742Z,8.90
2022-11-17T05:49:17.636Z,10.05
2022-11-17T05:51:24.011Z,8.07
2022-11-17T05:53:26.893Z,8.52
2022-11-17T05:55:28.794Z,7.80
2022-11-17T05:57:32.092Z,8.15
2022-11-17T05:59:41.566Z,8.23
2022-11-17T08:15:14.527Z,12.23
2022-11-17T08:19:19.373Z,7.28
2022-11-17T08:21:21.346Z,8.38
2022-11-17T08:23:23.691Z,6.35
2022-11-17T08:25:27.624Z,7.43
2022-11-17T08:27:29.515Z,6.53
2022-11-17T08:29:31.371Z,5.10
2022-11-17T08:31:33.329Z,6.13
2022-11-17T08:33:35.304Z,5.32
2022-11-17T08:35:37.861Z,4.57
2022-11-17T08:37:41.375Z,4.85
2022-11-17T08:39:43.656Z,5.40
2022-11-17T08:41:45.484Z,5.45
2022-11-17T08:43:47.316Z,6.05
2022-11-17T08:45:49.173Z,6.65
2022-11-17T08:47:50.995Z,6.55
2022-11-17T08:49:52.827Z,6.60
2022-11-17T08:51:54.694Z,5.15
2022-11-17T08:53:58.546Z,5.45
2022-11-17T08:56:00.370Z,5.50
2022-11-17T08:58:03.615Z,5.72
2022-11-17T09:00:06.852Z,4.47
2022-11-17T09:02:11.040Z,7.32
2022-11-17T09:04:12.971Z,8.65
2022-11-17T09:06:16.981Z,6.82
2022-11-17T09:10:41.560Z,6.45
2022-11-17T09:12:43.653Z,4.40
2022-11-17T09:16:47.234Z,4.07
2022-11-17T09:18:49.059Z,4.80
2022-11-17T09:20:50.895Z,5.68
2022-11-17T09:22:52.737Z,4.70
2022-11-17T09:24:54.566Z,3.85
2022-11-17T09:26:57.551Z,4.53
2022-11-17T09:29:03.672Z,4.43
2022-11-17T09:31:23.780Z,5.03
2022-11-17T09:33:26.068Z,4.88
2022-11-17T09:35:27.952Z,5.10
2022-11-17T09:37:29.820Z,4.57
2022-11-17T09:39:31.630Z,4.35
2022-11-17T09:41:43.474Z,4.10
2022-11-17T09:44:09.419Z,3.73
2022-11-17T09:46:21.318Z,4.15
2022-11-17T09:48:44.200Z,3.22
2022-11-17T09:50:49.379Z,3.83
2022-11-17T09:52:58.033Z,3.80
2022-11-17T09:55:09.498Z,4.28
2022-11-17T09:57:43.059Z,3.70
2022-11-17T09:59:45.307Z,3.40
2022-11-17T10:01:47.281Z,3.05
2022-11-17T12:17:26.409Z,8.82
2022-11-17T12:20:07.603Z,6.13
2022-11-17T12:22:16.135Z,6.07
2022-11-17T12:24:32.089Z,7.30
2022-11-17T12:26:34.979Z,9.38
2022-11-17T12:28:39.824Z,9.57
2022-11-17T12:30:44.889Z,9.88
2022-11-17T12:32:53.895Z,9.75
2022-11-17T12:35:34.351Z,9.02
2022-11-17T12:37:36.338Z,10.25
2022-11-17T12:42:08.533Z,12.13
2022-11-17T12:44:32.022Z,10.10
2022-11-17T12:46:34.026Z,9.93
2022-11-17T12:50:51.668Z,11.07
2022-11-17T12:52:59.384Z,11.93
2022-11-17T12:55:13.990Z,10.25
2022-11-17T12:57:26.802Z,9.98
2022-11-17T12:59:44.059Z,9.77
2022-11-17T13:02:17.765Z,11.43
2022-11-17T13:04:32.471Z,11.70
2022-11-17T13:06:36.347Z,10.43
2022-11-17T13:08:38.995Z,12.32
2022-11-17T13:10:41.879Z,12.23
2022-11-17T13:12:43.797Z,8.30
2022-11-17T13:14:59.958Z,7.45
2022-11-17T13:17:02.928Z,9.63
2022-11-17T13:19:24.931Z,11.50
2022-11-17T13:21:26.819Z,12.95
2022-11-17T13:23:32.612Z,12.48
2022-11-17T13:25:34.810Z,10.60
2022-11-17T13:27:36.638Z,6.88
2022-11-17T13:29:38.465Z,13.70
2022-11-17T13:31:40.857Z,8.50
2022-11-17T13:33:42.835Z,10.43
2022-11-17T13:35:44.683Z,9.32
2022-11-17T13:38:18.353Z,12.30
2022-11-17T13:40:22.106Z,10.25
2022-11-17T13:42:26.546Z,11.77
2022-11-17T13:44:29.025Z,11.98
2022-11-17T13:46:30.849Z,12.45
2022-11-17T13:48:38.469Z,11.07
2022-11-17T13:50:40.645Z,14.68
2022-11-17T13:52:46.941Z,11.02
2022-11-17T13:54:49.192Z,8.52
2022-11-17T13:56:54.680Z,9.95
2022-11-17T13:58:57.940Z,11.25
2022-11-17T16:13:54.405Z,18.20
2022-11-17T16:15:56.957Z,11.10
2022-11-17T16:17:58.920Z,16.90
2022-11-17T16:22:03.058Z,15.68
2022-11-17T16:24:05.408Z,14.50
2022-11-17T16:26:08.804Z,15.60
2022-11-17T16:28:11.608Z,14.32
2022-11-17T16:30:13.584Z,13.75
2022-11-17T16:34:18.778Z,10.73
2022-11-17T16:36:23.459Z,12.68
2022-11-17T16:38:25.334Z,11.05
2022-11-17T16:40:27.235Z,12.63
2022-11-17T16:42:29.084Z,11.90
2022-11-17T16:44:31.021Z,15.52
2022-11-17T16:46:32.906Z,12.05
2022-11-17T16:48:34.771Z,12.25
2022-11-17T16:50:38.113Z,13.80
2022-11-17T16:52:39.949Z,13.07
2022-11-17T16:54:42.076Z,13.52
2022-11-17T16:58:49.185Z,12.10
2022-11-17T17:00:51.042Z,11.70
2022-11-17T17:02:52.938Z,12.40
2022-11-17T17:04:54.818Z,12.27
2022-11-17T17:06:56.670Z,9.77
2022-11-17T17:09:03.592Z,13.25
2022-11-17T17:11:10.835Z,6.45
2022-11-17T17:13:12.712Z,12.77
2022-11-17T17:15:14.684Z,8.80
2022-11-17T17:19:20.620Z,10.90
2022-11-17T17:21:23.397Z,11.80
2022-11-17T17:23:25.635Z,8.93
2022-11-17T17:25:27.465Z,11.98
2022-11-17T17:27:30.658Z,13.23
2022-11-17T17:29:32.632Z,8.55
2022-11-17T17:33:38.559Z,11.35
2022-11-17T17:35:40.413Z,10.70
2022-11-17T17:37:42.236Z,14.27
2022-11-17T17:39:44.086Z,14.00
2022-11-17T17:41:46.200Z,11.80
2022-11-17T17:43:53.675Z,11.15
2022-11-17T17:46:00.650Z,10.65
2022-11-17T17:48:02.501Z,12.05
2022-11-17T17:50:04.628Z,12.20
2022-11-17T17:52:10.954Z,16.10
2022-11-17T17:54:17.841Z,14.13
2022-11-17T17:56:21.815Z,15.23
2022-11-17T17:58:24.140Z,12.70
2022-11-17T18:00:26.577Z,14.82
2022-11-17T20:13:03.921Z,13.02
2022-11-17T20:15:06.105Z,9.45
2022-11-17T20:17:07.967Z,10.68
2022-11-17T20:19:11.172Z,11.27
2022-11-17T20:21:14.072Z,11.30
2022-11-17T20:23:16.109Z,12.50
2022-11-17T20:27:21.264Z,10.60
2022-11-17T20:29:23.128Z,12.63
2022-11-17T20:31:31.932Z,9.23
2022-11-17T20:33:34.646Z,12.43
2022-11-17T20:35:40.118Z,13.25
2022-11-17T20:37:42.045Z,14.25
2022-11-17T20:39:44.698Z,14.90
2022-11-17T20:41:46.549Z,13.77
2022-11-17T20:43:50.009Z,17.90
2022-11-17T20:45:52.911Z,18.55
2022-11-17T20:47:55.132Z,16.08
2022-11-17T20:49:56.994Z,15.90
2022-11-17T20:51:58.842Z,14.30
2022-11-17T20:54:00.688Z,14.77
2022-11-17T20:56:04.678Z,13.65
2022-11-17T20:58:06.511Z,10.52
2022-11-17T21:00:09.091Z,11.25
2022-11-17T21:02:13.709Z,10.32
2022-11-17T21:04:15.609Z,15.90
2022-11-17T21:06:18.744Z,15.90
2022-11-17T21:08:20.816Z,10.60
2022-11-17T21:10:24.000Z,15.85
2022-11-17T21:12:25.865Z,16.77
2022-11-17T21:14:27.952Z,16.30
2022-11-17T21:16:29.872Z,18.38
2022-11-17T21:18:32.239Z,18.27
2022-11-17T21:20:34.325Z,17.77
2022-11-17T21:22:36.129Z,11.60
2022-11-17T21:24:37.979Z,11.27
2022-11-17T21:26:39.990Z,11.48
2022-11-17T21:30:43.829Z,12.35
2022-11-17T21:32:47.608Z,14.57
2022-11-17T21:34:55.359Z,12.30
2022-11-17T21:36:57.234Z,15.77
2022-11-17T21:38:59.995Z,14.52
2022-11-17T21:41:04.043Z,14.43
2022-11-17T21:43:12.177Z,12.35
2022-11-17T21:45:14.391Z,13.48
2022-11-17T21:49:18.330Z,17.30
2022-11-17T21:51:28.900Z,15.38
2022-11-17T21:53:31.558Z,16.98
2022-11-17T21:55:33.411Z,18.20
2022-11-17T21:57:35.268Z,19.65
2022-11-17T21:59:37.175Z,18.85
2022-11-17T22:01:39.822Z,15.13
2022-11-17T22:03:42.885Z,14.32
2022-11-17T22:05:44.766Z,17.10
2022-11-17T22:07:46.592Z,18.75
2022-11-17T22:09:48.494Z,13.73
2022-11-17T22:13:53.240Z,18.27
2022-11-17T22:15:55.129Z,20.35
2022-11-17T22:17:56.974Z,11.88
2022-11-17T22:19:58.805Z,16.67
2022-11-17T22:22:00.661Z,17.25
2022-11-17T22:24:03.915Z,18.20
2022-11-17T22:26:06.464Z,18.20
2022-11-17T22:28:08.326Z,16.50
2022-11-17T22:30:10.671Z,15.65
2022-11-17T22:32:12.477Z,18.38
2022-11-17T22:34:14.503Z,17.40
2022-11-17T22:38:18.099Z,17.80
2022-11-17T22:40:19.947Z,12.43
2022-11-17T22:42:21.797Z,15.82
2022-11-17T22:44:25.045Z,12.85
2022-11-17T22:46:28.860Z,17.60
2022-11-17T22:48:31.106Z,18.17
2022-11-17T22:50:33.009Z,15.02
2022-11-17T22:52:34.868Z,16.70
2022-11-17T22:54:36.790Z,16.10
2022-11-17T22:58:41.147Z,15.77
2022-11-17T23:02:45.056Z,9.52
2022-11-17T23:04:46.918Z,9.90
2022-11-17T23:06:49.494Z,11.15
2022-11-17T23:08:51.480Z,13.40
2022-11-17T23:13:15.011Z,11.88
2022-11-17T23:15:16.915Z,12.93
2022-11-17T23:17:19.719Z,8.38
2022-11-17T23:19:21.714Z,13.55
2022-11-17T23:23:25.775Z,13.57
2022-11-17T23:27:29.393Z,12.30
2022-11-17T23:29:31.297Z,13.88
2022-11-17T23:33:40.389Z,12.25
2022-11-17T23:35:42.272Z,14.63
2022-11-17T23:37:44.106Z,14.32
2022-11-17T23:39:45.964Z,15.73
2022-11-17T23:41:47.927Z,15.80
2022-11-17T23:45:52.795Z,8.23
2022-11-17T23:47:54.624Z,15.95
2022-11-17T23:49:56.481Z,16.23
2022-11-17T23:51:58.323Z,14.73
2022-11-17T23:54:01.632Z,16.98
2022-11-17T23:56:04.294Z,15.93
2022-11-17T23:58:06.114Z,14.77
